createdAt,value
2024-05-09T00:00:39.988Z,100.00
2024-05-09T00:03:09.706Z,100.00
2024-05-09T00:05:37.813Z,100.00
2024-05-09T00:08:05.342Z,100.00
2024-05-09T00:10:37.072Z,100.00
2024-05-09T00:13:10.025Z,100.00
2024-05-09T00:15:37.445Z,100.00
2024-05-09T00:18:05.823Z,100.00
2024-05-09T00:20:38.395Z,100.00
2024-05-09T00:23:12.431Z,100.00
2024-05-09T00:25:42.085Z,100.00
2024-05-09T00:28:08.964Z,100.00
2024-05-09T00:30:37.143Z,100.00
2024-05-09T00:33:06.798Z,100.00
2024-05-09T00:35:35.161Z,100.00
2024-05-09T00:38:02.282Z,100.00
2024-05-09T00:40:40.576Z,100.00
2024-05-09T00:43:10.578Z,100.00
2024-05-09T00:45:37.572Z,100.00
2024-05-09T00:48:07.552Z,100.00
2024-05-09T00:50:38.137Z,100.00
2024-05-09T00:53:11.367Z,100.00
2024-05-09T00:55:39.292Z,100.00
2024-05-09T00:58:09.883Z,100.00
2024-05-09T01:00:40.004Z,100.00
2024-05-09T01:03:10.854Z,100.00
2024-05-09T01:05:39.919Z,100.00
2024-05-09T01:08:07.719Z,100.00
2024-05-09T01:10:36.174Z,100.00
2024-05-09T01:13:07.424Z,100.00
2024-05-09T01:15:35.129Z,100.00
2024-05-09T01:18:12.908Z,100.00
2024-05-09T01:20:43.332Z,100.00
2024-05-09T01:23:14.014Z,100.00
2024-05-09T01:25:42.762Z,100.00
2024-05-09T01:28:09.762Z,100.00
2024-05-09T01:30:37.844Z,100.00
2024-05-09T01:33:08.134Z,100.00
2024-05-09T01:35:36.865Z,100.00
2024-05-09T01:38:04.102Z,100.00
2024-05-09T01:40:38.309Z,100.00
2024-05-09T01:43:11.425Z,100.00
2024-05-09T01:45:40.034Z,100.00
2024-05-09T01:48:08.042Z,100.00
2024-05-09T01:50:39.660Z,100.00
2024-05-09T01:53:11.848Z,100.00
2024-05-09T01:55:39.051Z,100.00
2024-05-09T01:58:06.161Z,100.00
2024-05-09T02:00:39.198Z,100.00
2024-05-09T02:03:16.347Z,100.00
2024-05-09T02:05:46.399Z,100.00
2024-05-09T02:08:15.403Z,100.00
2024-05-09T02:10:44.131Z,100.00
2024-05-09T02:13:11.315Z,100.00
2024-05-09T02:15:38.141Z,100.00
2024-05-09T02:18:05.583Z,100.00
2024-05-09T02:20:36.033Z,100.00
2024-05-09T02:23:06.023Z,100.00
2024-05-09T02:25:33.511Z,100.00
2024-05-09T02:28:00.288Z,100.00
2024-05-09T02:30:38.613Z,100.00
2024-05-09T02:33:13.127Z,100.00
2024-05-09T02:35:42.063Z,100.00
2024-05-09T02:38:09.719Z,100.00
2024-05-09T02:40:38.917Z,100.00
2024-05-09T02:43:08.061Z,100.00
2024-05-09T02:45:35.286Z,100.00
2024-05-09T02:48:02.560Z,100.00
2024-05-09T02:50:36.960Z,100.00
2024-05-09T02:53:07.426Z,100.00
2024-05-09T02:55:34.837Z,100.00
2024-05-09T02:58:01.646Z,100.00
2024-05-09T03:00:36.836Z,100.00
2024-05-09T03:03:08.569Z,100.00
2024-05-09T03:05:37.187Z,100.00
2024-05-09T03:08:04.621Z,100.00
2024-05-09T03:10:36.105Z,100.00
2024-05-09T03:13:13.791Z,100.00
2024-05-09T03:15:42.452Z,100.00
2024-05-09T03:18:09.685Z,100.00
2024-05-09T03:20:37.922Z,100.00
2024-05-09T03:23:07.825Z,100.00
2024-05-09T03:25:35.763Z,100.00
2024-05-09T03:28:02.608Z,100.00
2024-05-09T03:30:36.386Z,100.00
2024-05-09T03:33:13.565Z,100.00
2024-05-09T03:35:41.725Z,100.00
2024-05-09T03:38:08.796Z,100.00
2024-05-09T03:40:35.751Z,100.00
2024-05-09T03:43:02.451Z,100.00
2024-05-09T03:45:29.235Z,100.00
2024-05-09T03:47:56.264Z,100.00
2024-05-09T03:50:30.047Z,100.00
2024-05-09T03:53:01.801Z,100.00
2024-05-09T03:55:28.704Z,100.00
2024-05-09T03:57:55.429Z,100.00
2024-05-09T04:00:30.933Z,100.00
2024-05-09T04:03:05.526Z,100.00
2024-05-09T04:05:33.551Z,100.00
2024-05-09T04:08:00.458Z,100.00
2024-05-09T04:10:32.840Z,100.00
2024-05-09T04:13:01.325Z,100.00
2024-05-09T04:15:28.118Z,100.00
2024-05-09T04:17:55.990Z,100.00
2024-05-09T04:20:33.613Z,100.00
2024-05-09T04:23:06.820Z,100.00
2024-05-09T04:25:34.101Z,100.00
2024-05-09T04:28:01.092Z,100.00
2024-05-09T04:30:36.482Z,100.00
2024-05-09T04:33:08.465Z,100.00
2024-05-09T04:35:37.163Z,100.00
2024-05-09T04:38:05.086Z,100.00
2024-05-09T04:40:35.202Z,100.00
2024-05-09T04:43:14.079Z,100.00
2024-05-09T04:45:41.284Z,100.00
2024-05-09T04:48:08.785Z,100.00
2024-05-09T04:50:38.633Z,100.00
2024-05-09T04:53:08.797Z,100.00
2024-05-09T04:55:37.022Z,100.00
2024-05-09T04:58:04.535Z,100.00
2024-05-09T05:00:36.534Z,100.00
2024-05-09T05:03:10.098Z,100.00
2024-05-09T05:05:42.649Z,100.00
2024-05-09T05:08:18.213Z,100.00
2024-05-09T05:10:46.961Z,100.00
2024-05-09T05:13:20.167Z,100.00
2024-05-09T05:15:55.594Z,100.00
2024-05-09T05:18:23.463Z,100.00
2024-05-09T05:20:50.462Z,100.00
2024-05-09T05:23:22.127Z,100.00
2024-05-09T05:25:50.406Z,100.00
2024-05-09T05:28:17.620Z,100.00
2024-05-09T05:30:45.761Z,100.00
2024-05-09T05:33:14.336Z,100.00
2024-05-09T05:35:42.224Z,100.00
2024-05-09T05:38:10.190Z,100.00
2024-05-09T05:40:38.869Z,100.00
2024-05-09T05:43:09.876Z,100.00
2024-05-09T05:45:37.417Z,100.00
2024-05-09T05:48:06.114Z,100.00
2024-05-09T05:50:36.799Z,100.00
2024-05-09T05:53:09.509Z,100.00
2024-05-09T05:55:37.767Z,100.00
2024-05-09T05:58:05.062Z,100.00
2024-05-09T06:03:01.883Z,100.00
2024-05-09T06:05:29.067Z,100.00
2024-05-09T06:07:56.125Z,100.00
2024-05-09T06:10:29.612Z,100.00
2024-05-09T06:13:01.767Z,100.00
2024-05-09T06:15:28.443Z,100.00
2024-05-09T06:17:55.347Z,100.00
2024-05-09T06:20:31.570Z,100.00
2024-05-09T06:23:03.362Z,100.00
2024-05-09T06:25:30.417Z,100.00
2024-05-09T06:27:57.242Z,100.00
2024-05-09T06:30:30.779Z,89.20
2024-05-09T06:33:07.583Z,80.11
2024-05-09T06:35:34.835Z,76.10
2024-05-09T06:38:02.164Z,69.88
2024-05-09T06:40:36.998Z,68.05
2024-05-09T06:43:11.408Z,71.18
2024-05-09T06:45:39.896Z,72.36
2024-05-09T06:48:09.432Z,62.66
2024-05-09T06:50:38.489Z,60.94
2024-05-09T06:53:07.617Z,63.11
2024-05-09T06:55:34.783Z,61.74
2024-05-09T06:58:01.601Z,57.11
2024-05-09T07:00:35.722Z,55.80
2024-05-09T07:03:16.521Z,55.24
2024-05-09T07:05:46.037Z,53.44
2024-05-09T07:08:13.561Z,53.28
2024-05-09T07:10:40.408Z,52.75
2024-05-09T07:13:12.896Z,52.30
2024-05-09T07:15:41.092Z,52.32
2024-05-09T07:18:12.447Z,51.70
2024-05-09T07:20:40.458Z,51.12
2024-05-09T07:23:11.156Z,50.97
2024-05-09T07:25:39.695Z,50.45
2024-05-09T07:28:13.827Z,48.41
2024-05-09T07:30:41.432Z,48.40
2024-05-09T07:33:08.310Z,47.69
2024-05-09T07:35:35.569Z,49.36
2024-05-09T07:38:02.623Z,47.06
2024-05-09T07:40:35.756Z,46.92
2024-05-09T07:43:08.111Z,46.86
2024-05-09T07:52:32.543Z,46.78
2024-05-09T07:55:53.920Z,43.68
2024-05-09T07:58:22.334Z,43.83
2024-05-09T08:00:49.372Z,43.67
2024-05-09T08:03:16.312Z,42.15
2024-05-09T08:05:43.294Z,41.59
2024-05-09T08:08:11.351Z,42.06
2024-05-09T08:10:38.295Z,41.17
2024-05-09T08:13:05.264Z,40.97
2024-05-09T08:15:32.107Z,41.14
2024-05-09T08:18:00.837Z,40.61
2024-05-09T08:20:33.423Z,40.33
2024-05-09T08:23:01.806Z,40.62
2024-05-09T08:25:29.023Z,38.75
2024-05-09T08:27:55.834Z,38.93
2024-05-09T08:30:30.087Z,38.48
2024-05-09T08:33:04.611Z,37.79
2024-05-09T08:35:32.017Z,37.31
2024-05-09T08:37:59.258Z,37.11
2024-05-09T08:40:33.916Z,37.28
2024-05-09T08:43:07.295Z,37.71
2024-05-09T08:45:35.905Z,37.90
2024-05-09T08:48:06.039Z,39.71
2024-05-09T08:50:38.740Z,42.61
2024-05-09T08:53:08.158Z,41.60
2024-05-09T08:55:40.166Z,39.81
2024-05-09T08:58:12.626Z,39.75
2024-05-09T09:00:42.112Z,39.54
2024-05-09T09:03:11.528Z,38.68
2024-05-09T09:05:40.747Z,39.62
2024-05-09T09:08:08.732Z,38.58
2024-05-09T09:10:36.833Z,39.76
2024-05-09T09:13:05.244Z,40.64
2024-05-09T09:15:32.892Z,39.17
2024-05-09T09:18:00.833Z,38.79
2024-05-09T09:20:35.728Z,39.62
2024-05-09T09:23:04.730Z,38.39
2024-05-09T09:25:32.109Z,36.91
2024-05-09T09:27:59.311Z,37.17
2024-05-09T09:30:36.411Z,37.38
2024-05-09T09:33:12.029Z,38.06
2024-05-09T09:35:42.293Z,36.90
2024-05-09T09:38:10.596Z,37.67
2024-05-09T09:40:46.591Z,36.89
2024-05-09T09:43:21.406Z,37.81
2024-05-09T09:45:52.923Z,36.12
2024-05-09T09:48:21.729Z,36.10
2024-05-09T09:50:48.811Z,37.83
2024-05-09T09:53:16.469Z,37.41
2024-05-09T09:55:43.880Z,37.13
2024-05-09T09:58:13.851Z,36.38
2024-05-09T10:00:41.813Z,36.10
2024-05-09T10:03:09.091Z,35.98
2024-05-09T10:05:36.823Z,37.28
2024-05-09T10:08:07.455Z,36.87
2024-05-09T10:10:35.544Z,36.92
2024-05-09T10:13:06.518Z,35.64
2024-05-09T10:15:49.986Z,35.99
2024-05-09T10:18:17.124Z,35.62
2024-05-09T10:20:47.063Z,36.67
2024-05-09T10:23:26.660Z,35.39
2024-05-09T10:26:07.692Z,36.58
2024-05-09T10:28:37.092Z,35.64
2024-05-09T10:31:07.045Z,36.25
2024-05-09T10:33:45.179Z,35.71
2024-05-09T10:36:13.010Z,36.13
2024-05-09T10:38:41.006Z,36.25
2024-05-09T10:41:08.524Z,35.97
2024-05-09T10:43:40.297Z,35.99
2024-05-09T10:46:07.635Z,36.15
2024-05-09T10:48:36.144Z,35.63
2024-05-09T10:51:04.176Z,35.45
2024-05-09T10:53:31.638Z,34.34
2024-05-09T10:56:01.830Z,35.80
2024-05-09T10:58:28.625Z,35.42
2024-05-09T11:00:57.957Z,35.91
2024-05-09T11:03:25.701Z,36.28
2024-05-09T11:05:53.325Z,36.17
2024-05-09T11:08:24.362Z,36.95
2024-05-09T11:10:53.216Z,35.84
2024-05-09T11:13:27.857Z,34.38
2024-05-09T11:15:54.834Z,34.42
2024-05-09T11:18:26.757Z,35.04
2024-05-09T11:20:56.148Z,37.21
2024-05-09T11:23:29.968Z,35.34
2024-05-09T11:25:58.261Z,33.70
2024-05-09T11:28:28.247Z,34.10
2024-05-09T11:31:07.589Z,35.29
2024-05-09T11:33:56.048Z,35.26
2024-05-09T11:36:22.835Z,34.21
2024-05-09T11:38:49.670Z,34.19
2024-05-09T11:41:17.868Z,35.49
2024-05-09T11:43:44.605Z,34.69
2024-05-09T11:46:11.473Z,34.71
2024-05-09T11:48:39.730Z,35.49
2024-05-09T11:51:06.736Z,34.64
2024-05-09T11:53:33.466Z,33.95
2024-05-09T11:56:00.214Z,34.24
2024-05-09T11:58:28.408Z,33.63
2024-05-09T12:00:55.442Z,34.64
2024-05-09T12:03:22.308Z,33.59
2024-05-09T12:05:49.298Z,33.16
2024-05-09T12:08:16.131Z,34.32
2024-05-09T12:10:42.901Z,33.41
2024-05-09T12:13:09.980Z,33.61
2024-05-09T12:15:38.299Z,35.07
2024-05-09T12:18:07.181Z,35.53
2024-05-09T12:20:37.875Z,34.58
2024-05-09T12:23:08.850Z,34.67
2024-05-09T12:25:37.334Z,36.83
2024-05-09T12:28:04.540Z,37.08
2024-05-09T12:30:36.824Z,36.61
2024-05-09T12:33:12.084Z,37.56
2024-05-09T12:35:43.470Z,36.09
2024-05-09T12:38:13.914Z,36.32
2024-05-09T12:40:40.743Z,36.92
2024-05-09T12:43:08.700Z,36.99
2024-05-09T12:45:36.716Z,36.55
2024-05-09T12:48:06.940Z,35.87
2024-05-09T12:50:34.695Z,36.48
2024-05-09T12:53:03.053Z,36.05
2024-05-09T12:55:37.296Z,35.24
2024-05-09T12:58:11.816Z,36.17
2024-05-09T13:00:38.958Z,35.51
2024-05-09T13:03:06.175Z,35.36
2024-05-09T13:05:33.290Z,35.75
2024-05-09T13:08:00.944Z,35.63
2024-05-09T13:10:32.158Z,36.41
2024-05-09T13:13:01.519Z,36.33
2024-05-09T13:15:30.299Z,36.69
2024-05-09T13:18:00.323Z,40.31
2024-05-09T13:20:33.416Z,39.58
2024-05-09T13:23:03.521Z,38.84
2024-05-09T13:25:30.495Z,39.36
2024-05-09T13:27:57.840Z,39.91
2024-05-09T13:30:33.666Z,40.14
2024-05-09T13:33:06.592Z,40.02
2024-05-09T13:35:35.069Z,40.31
2024-05-09T13:38:02.554Z,40.81
2024-05-09T13:40:33.898Z,39.63
2024-05-09T13:43:04.215Z,39.55
2024-05-09T13:45:31.436Z,40.50
2024-05-09T13:47:58.626Z,41.03
2024-05-09T13:50:33.279Z,39.53
2024-05-09T13:53:04.847Z,39.08
2024-05-09T13:55:32.345Z,38.25
2024-05-09T13:57:59.186Z,39.21
2024-05-09T14:00:38.173Z,39.97
2024-05-09T14:03:11.672Z,39.36
2024-05-09T14:05:38.854Z,40.29
2024-05-09T14:08:06.060Z,41.52
2024-05-09T14:10:33.082Z,41.39
2024-05-09T14:13:01.138Z,42.70
2024-05-09T14:15:28.369Z,42.52
2024-05-09T14:17:55.638Z,43.31
2024-05-09T14:20:30.582Z,44.62
2024-05-09T14:23:01.949Z,43.61
2024-05-09T14:25:30.048Z,44.17
2024-05-09T14:28:00.205Z,45.00
2024-05-09T14:30:34.713Z,45.61
2024-05-09T14:33:05.911Z,46.02
2024-05-09T14:35:33.700Z,46.72
2024-05-09T14:38:00.676Z,48.04
2024-05-09T14:40:37.197Z,48.17
2024-05-09T14:43:11.104Z,47.11
2024-05-09T14:45:38.114Z,48.11
2024-05-09T14:48:06.174Z,48.47
2024-05-09T14:50:37.187Z,48.78
2024-05-09T14:53:07.768Z,50.40
2024-05-09T14:55:37.235Z,49.57
2024-05-09T14:58:09.140Z,50.32
2024-05-09T15:00:44.442Z,50.58
2024-05-09T15:03:14.927Z,51.64
2024-05-09T15:05:41.798Z,51.88
2024-05-09T15:08:08.815Z,53.63
2024-05-09T15:10:36.942Z,53.66
2024-05-09T15:13:05.381Z,53.76
2024-05-09T15:15:32.998Z,56.44
2024-05-09T15:18:00.317Z,54.90
2024-05-09T15:20:33.993Z,57.26
2024-05-09T15:23:04.310Z,56.89
2024-05-09T15:25:31.175Z,57.39
2024-05-09T15:27:58.109Z,58.07
2024-05-09T15:30:30.319Z,58.94
2024-05-09T15:33:00.114Z,59.40
2024-05-09T15:35:27.147Z,62.63
2024-05-09T15:37:54.100Z,62.40
2024-05-09T15:40:30.614Z,62.94
2024-05-09T15:43:05.209Z,63.37
2024-05-09T15:45:32.333Z,62.35
2024-05-09T15:47:59.714Z,63.42
2024-05-09T15:50:36.272Z,60.09
2024-05-09T15:53:08.008Z,59.20
2024-05-09T15:55:35.713Z,61.87
2024-05-09T15:58:03.927Z,61.18
2024-05-09T16:00:38.632Z,60.29
2024-05-09T16:03:13.628Z,60.17
2024-05-09T16:05:44.593Z,61.34
2024-05-09T16:08:12.567Z,63.39
2024-05-09T16:10:44.214Z,63.45
2024-05-09T16:13:12.060Z,61.42
2024-05-09T16:15:39.074Z,62.36
2024-05-09T16:18:06.679Z,60.92
2024-05-09T16:20:39.222Z,58.61
2024-05-09T16:23:08.921Z,55.14
2024-05-09T16:25:36.399Z,54.01
2024-05-09T16:28:07.089Z,51.50
2024-05-09T16:30:36.762Z,51.65
2024-05-09T16:33:04.941Z,50.65
2024-05-09T16:35:32.602Z,51.04
2024-05-09T16:38:02.222Z,49.45
2024-05-09T16:40:36.487Z,48.26
2024-05-09T16:43:06.855Z,48.96
2024-05-09T16:45:34.243Z,48.75
2024-05-09T16:48:01.810Z,50.23
2024-05-09T16:50:33.407Z,49.44
2024-05-09T16:53:02.622Z,49.45
2024-05-09T16:55:29.514Z,48.81
2024-05-09T16:57:57.257Z,50.22
2024-05-09T17:00:35.446Z,49.70
2024-05-09T17:03:09.221Z,50.01
2024-05-09T17:05:36.748Z,49.72
2024-05-09T17:08:04.244Z,51.07
2024-05-09T17:10:33.873Z,50.87
2024-05-09T17:13:06.686Z,52.64
2024-05-09T17:15:35.362Z,52.46
2024-05-09T17:18:03.908Z,52.89
2024-05-09T17:20:34.628Z,53.00
2024-05-09T17:23:05.528Z,53.56
2024-05-09T17:25:33.444Z,54.14
2024-05-09T17:28:06.501Z,55.17
2024-05-09T17:30:36.661Z,56.22
2024-05-09T17:33:06.498Z,57.38
2024-05-09T17:35:33.609Z,58.67
2024-05-09T17:38:01.612Z,60.76
2024-05-09T17:40:33.582Z,64.37
2024-05-09T17:43:04.058Z,66.06
2024-05-09T17:45:32.241Z,67.58
2024-05-09T17:47:59.625Z,70.96
2024-05-09T17:50:31.938Z,73.95
2024-05-09T17:53:03.013Z,78.69
2024-05-09T17:55:30.130Z,81.40
2024-05-09T17:57:57.482Z,78.57
2024-05-09T18:00:34.283Z,80.75
2024-05-09T18:03:06.321Z,79.13
2024-05-09T18:05:35.588Z,79.46
2024-05-09T18:08:03.221Z,81.57
2024-05-09T18:10:35.990Z,83.96
2024-05-09T18:13:06.349Z,82.68
2024-05-09T18:15:33.783Z,82.05
2024-05-09T18:18:01.591Z,81.79
2024-05-09T18:20:37.693Z,83.01
2024-05-09T18:23:10.880Z,82.52
2024-05-09T18:25:37.781Z,79.48
2024-05-09T18:28:05.665Z,82.31
2024-05-09T18:30:35.527Z,83.94
2024-05-09T18:33:08.191Z,84.10
2024-05-09T18:35:36.401Z,85.02
2024-05-09T18:38:04.909Z,89.81
2024-05-09T18:40:35.699Z,97.22
2024-05-09T18:43:07.199Z,100.00
2024-05-09T18:45:36.665Z,100.00
2024-05-09T18:48:05.117Z,100.00
2024-05-09T18:50:37.101Z,100.00
2024-05-09T18:53:06.727Z,100.00
2024-05-09T18:55:34.087Z,100.00
2024-05-09T18:58:01.140Z,100.00
2024-05-09T19:00:35.569Z,100.00
2024-05-09T19:03:09.563Z,100.00
2024-05-09T19:05:39.174Z,100.00
2024-05-09T19:08:07.446Z,100.00
2024-05-09T19:10:35.761Z,100.00
2024-05-09T19:13:08.238Z,100.00
2024-05-09T19:15:39.523Z,100.00
2024-05-09T19:18:07.464Z,100.00
2024-05-09T19:20:36.121Z,100.00
2024-05-09T19:23:04.653Z,100.00
2024-05-09T19:25:32.086Z,100.00
2024-05-09T19:28:00.464Z,100.00
2024-05-09T19:30:36.674Z,100.00
2024-05-09T19:33:07.846Z,100.00
2024-05-09T19:35:34.703Z,100.00
2024-05-09T19:38:01.925Z,100.00
2024-05-09T19:40:32.041Z,100.00
2024-05-09T19:43:02.335Z,100.00
2024-05-09T19:45:29.817Z,100.00
2024-05-09T19:47:56.786Z,100.00
2024-05-09T19:50:32.223Z,100.00
2024-05-09T19:53:06.789Z,100.00
2024-05-09T19:55:33.810Z,100.00
2024-05-09T19:58:04.882Z,100.00
2024-05-09T20:00:39.823Z,100.00
2024-05-09T20:03:09.634Z,100.00
2024-05-09T20:05:37.597Z,100.00
2024-05-09T20:08:05.842Z,100.00
2024-05-09T20:10:35.098Z,100.00
2024-05-09T20:13:04.272Z,100.00
2024-05-09T20:15:32.139Z,100.00
2024-05-09T20:17:59.105Z,100.00
2024-05-09T20:20:33.801Z,100.00
2024-05-09T20:23:08.738Z,100.00
2024-05-09T20:25:35.774Z,100.00
2024-05-09T20:28:02.742Z,100.00
2024-05-09T20:30:32.843Z,100.00
2024-05-09T20:33:07.221Z,100.00
2024-05-09T20:35:35.537Z,100.00
2024-05-09T20:38:03.525Z,100.00
2024-05-09T20:40:35.132Z,100.00
2024-05-09T20:43:06.226Z,100.00
2024-05-09T20:45:33.605Z,100.00
2024-05-09T20:48:00.836Z,100.00
2024-05-09T20:50:36.421Z,100.00
2024-05-09T20:53:09.247Z,100.00
2024-05-09T20:55:36.192Z,100.00
2024-05-09T20:58:03.141Z,100.00
2024-05-09T21:00:38.686Z,100.00
2024-05-09T21:03:09.235Z,100.00
2024-05-09T21:05:36.268Z,100.00
2024-05-09T21:08:03.228Z,100.00
2024-05-09T21:10:33.050Z,100.00
2024-05-09T21:13:02.562Z,100.00
2024-05-09T21:15:29.994Z,100.00
2024-05-09T21:17:56.776Z,100.00
2024-05-09T21:20:30.495Z,100.00
2024-05-09T21:22:59.037Z,100.00
2024-05-09T21:25:25.941Z,100.00
2024-05-09T21:27:53.192Z,100.00
2024-05-09T21:30:31.516Z,100.00
2024-05-09T21:33:08.125Z,100.00
2024-05-09T21:35:35.256Z,100.00
2024-05-09T21:38:01.980Z,100.00
2024-05-09T21:40:34.273Z,100.00
2024-05-09T21:43:03.993Z,100.00
2024-05-09T21:45:30.994Z,100.00
2024-05-09T21:47:57.999Z,100.00
2024-05-09T21:50:32.286Z,100.00
2024-05-09T21:53:06.725Z,100.00
2024-05-09T21:55:33.948Z,100.00
2024-05-09T21:58:00.881Z,100.00
2024-05-09T22:00:35.429Z,100.00
2024-05-09T22:03:05.697Z,100.00
2024-05-09T22:05:32.977Z,100.00
2024-05-09T22:08:00.086Z,100.00
2024-05-09T22:10:33.226Z,100.00
2024-05-09T22:13:02.441Z,100.00
2024-05-09T22:15:29.321Z,100.00
2024-05-09T22:17:57.467Z,100.00
2024-05-09T22:20:33.702Z,100.00
2024-05-09T22:23:04.544Z,100.00
2024-05-09T22:25:32.264Z,100.00
2024-05-09T22:28:00.581Z,100.00
2024-05-09T22:30:34.793Z,100.00
2024-05-09T22:33:06.202Z,100.00
2024-05-09T22:35:33.291Z,100.00
2024-05-09T22:38:00.218Z,100.00
2024-05-09T22:40:38.656Z,100.00
2024-05-09T22:43:13.686Z,100.00
2024-05-09T22:45:41.031Z,100.00
2024-05-09T22:48:08.718Z,100.00
2024-05-09T22:50:35.889Z,100.00
2024-05-09T22:53:02.713Z,100.00
2024-05-09T22:55:30.048Z,100.00
2024-05-09T22:57:56.944Z,100.00
2024-05-09T23:02:53.540Z,100.00
2024-05-09T23:05:20.447Z,100.00
2024-05-09T23:07:47.207Z,100.00
2024-05-09T23:10:21.207Z,100.00
2024-05-09T23:12:54.872Z,100.00
2024-05-09T23:15:21.884Z,100.00
2024-05-09T23:17:48.891Z,100.00
2024-05-09T23:20:21.713Z,100.00
2024-05-09T23:22:55.903Z,100.00
2024-05-09T23:25:22.636Z,100.00
2024-05-09T23:27:49.411Z,100.00
2024-05-09T23:30:28.251Z,100.00
2024-05-09T23:33:01.188Z,100.00
2024-05-09T23:35:28.095Z,100.00
2024-05-09T23:37:54.787Z,100.00
2024-05-09T23:40:23.350Z,100.00
2024-05-09T23:42:50.798Z,100.00
2024-05-09T23:45:17.652Z,100.00
2024-05-09T23:47:44.381Z,100.00
2024-05-09T23:50:16.598Z,100.00
2024-05-09T23:52:47.569Z,100.00
2024-05-09T23:55:14.551Z,100.00
2024-05-09T23:57:41.399Z,100.00
